Guemes Island, Washington
Current Conditions -  °F | °C
As of 1:56 PM on Monday 20 Oct 2014 (Local Time) from KNUW Reporting Station
Broken Clouds Broken Clouds  
Wind Chill: 65°   Ceiling: 3200
Heat Index: 65°   Visibility: 10mi
Dew Point: 53°   Wind: 18mph
Humidity: 65%   Direction: 150°SSE
Pressure: 29.73"   Gusts: 23mph
Location:  48.4652°N, 122.617°W
Report Text: KNUW 202056Z 15016G20KT 10SM SCT018 BKN032 BKN110 BKN200 18/12 A2973 RMK AO2 PK WND 15035/2014 SLP070 60004 T01830117 57003 $
Loading
Personal Weather Stations






























Interactive Weather Map
Tropical Storm Tracking
New forecast layout! Learn more

10-Day Weather Forecast

Advertisements
Track Severe Weather on mobile